Ilioupolis, Greece
Current Conditions -  °F | °C
As of 6:20 PM on Saturday 20 Dec 2014 (Local Time) from LGAV Reporting Station
Clear Clear  
Wind Chill: 55°   Ceiling: Unl
Heat Index: 55°   Visibility: 6mi
Dew Point: 45°   Wind: 7mph
Humidity: 67%   Direction: 190°S
Pressure: 30.12"   Gusts: NA
Location:  37.92°N, 23.75°E
Report Text: LGAV 201520Z 19006KT CAVOK 13/07 Q1020 NOSIG
Loading
Personal Weather Stations






























Interactive Weather Map New forecast layout! Learn more

10-Day Weather Forecast

Advertisements
Track Severe Weather on mobile